sensor_id;sensor_type;location;lat;lon;timestamp;P1;durP1;ratioP1;P2;durP2;ratioP2
3901;SDS011;1966;49.908;9.156;2022-08-02T00:03:42;7.17;;;6.57;;
3901;SDS011;1966;49.908;9.156;2022-08-02T00:09:02;6.87;;;6.23;;
3901;SDS011;1966;49.908;9.156;2022-08-02T00:14:22;7.80;;;6.40;;
3901;SDS011;1966;49.908;9.156;2022-08-02T00:19:43;7.03;;;6.43;;
3901;SDS011;1966;49.908;9.156;2022-08-02T00:25:03;6.80;;;6.10;;
3901;SDS011;1966;49.908;9.156;2022-08-02T00:30:22;7.50;;;6.77;;
3901;SDS011;1966;49.908;9.156;2022-08-02T00:35:43;7.37;;;6.67;;
3901;SDS011;1966;49.908;9.156;2022-08-02T00:41:10;7.03;;;6.33;;
3901;SDS011;1966;49.908;9.156;2022-08-02T00:46:29;7.80;;;7.00;;
3901;SDS011;1966;49.908;9.156;2022-08-02T00:51:50;7.07;;;6.37;;
3901;SDS011;1966;49.908;9.156;2022-08-02T00:57:10;8.70;;;7.43;;
3901;SDS011;1966;49.908;9.156;2022-08-02T01:02:29;9.30;;;6.47;;
3901;SDS011;1966;49.908;9.156;2022-08-02T01:07:50;7.17;;;6.40;;
3901;SDS011;1966;49.908;9.156;2022-08-02T01:13:10;9.00;;;6.73;;
3901;SDS011;1966;49.908;9.156;2022-08-02T01:18:30;7.37;;;6.67;;
3901;SDS011;1966;49.908;9.156;2022-08-02T01:23:55;8.33;;;7.50;;
3901;SDS011;1966;49.908;9.156;2022-08-02T01:29:17;8.83;;;7.40;;
3901;SDS011;1966;49.908;9.156;2022-08-02T01:34:40;7.13;;;6.53;;
3901;SDS011;1966;49.908;9.156;2022-08-02T01:40:02;9.13;;;7.07;;
3901;SDS011;1966;49.908;9.156;2022-08-02T01:45:25;7.10;;;6.40;;
3901;SDS011;1966;49.908;9.156;2022-08-02T01:50:46;6.77;;;6.17;;
3901;SDS011;1966;49.908;9.156;2022-08-02T01:56:06;7.80;;;7.00;;
3901;SDS011;1966;49.908;9.156;2022-08-02T02:01:29;7.63;;;6.90;;
3901;SDS011;1966;49.908;9.156;2022-08-02T02:06:49;6.90;;;6.30;;
3901;SDS011;1966;49.908;9.156;2022-08-02T02:12:10;6.50;;;5.90;;
3901;SDS011;1966;49.908;9.156;2022-08-02T02:17:32;7.00;;;6.30;;
3901;SDS011;1966;49.908;9.156;2022-08-02T02:22:52;7.30;;;6.60;;
3901;SDS011;1966;49.908;9.156;2022-08-02T02:28:13;6.97;;;6.37;;
3901;SDS011;1966;49.908;9.156;2022-08-02T02:33:36;8.50;;;7.17;;
3901;SDS011;1966;49.908;9.156;2022-08-02T02:38:58;7.40;;;5.90;;
3901;SDS011;1966;49.908;9.156;2022-08-02T02:44:19;6.90;;;6.30;;
3901;SDS011;1966;49.908;9.156;2022-08-02T02:49:42;7.10;;;6.40;;
3901;SDS011;1966;49.908;9.156;2022-08-02T02:55:03;7.80;;;7.00;;
3901;SDS011;1966;49.908;9.156;2022-08-02T03:00:23;7.43;;;6.73;;
3901;SDS011;1966;49.908;9.156;2022-08-02T03:05:59;8.63;;;7.00;;
3901;SDS011;1966;49.908;9.156;2022-08-02T03:11:18;8.00;;;7.17;;
3901;SDS011;1966;49.908;9.156;2022-08-02T03:16:42;7.00;;;6.30;;
3901;SDS011;1966;49.908;9.156;2022-08-02T03:22:03;7.20;;;6.50;;
3901;SDS011;1966;49.908;9.156;2022-08-02T03:27:22;10.93;;;7.53;;
3901;SDS011;1966;49.908;9.156;2022-08-02T03:32:43;7.47;;;6.77;;
3901;SDS011;1966;49.908;9.156;2022-08-02T03:38:04;7.23;;;5.93;;
3901;SDS011;1966;49.908;9.156;2022-08-02T03:43:24;7.53;;;6.50;;
3901;SDS011;1966;49.908;9.156;2022-08-02T03:48:44;7.07;;;6.40;;
3901;SDS011;1966;49.908;9.156;2022-08-02T03:54:05;6.80;;;6.20;;
3901;SDS011;1966;49.908;9.156;2022-08-02T03:59:25;8.27;;;6.10;;
3901;SDS011;1966;49.908;9.156;2022-08-02T04:04:45;6.70;;;6.03;;
3901;SDS011;1966;49.908;9.156;2022-08-02T04:10:06;7.33;;;6.60;;
3901;SDS011;1966;49.908;9.156;2022-08-02T04:15:26;8.13;;;6.20;;
3901;SDS011;1966;49.908;9.156;2022-08-02T04:20:45;7.37;;;6.77;;
3901;SDS011;1966;49.908;9.156;2022-08-02T04:26:07;6.80;;;6.20;;
3901;SDS011;1966;49.908;9.156;2022-08-02T04:31:27;6.27;;;5.70;;
3901;SDS011;1966;49.908;9.156;2022-08-02T04:36:47;6.90;;;6.30;;
3901;SDS011;1966;49.908;9.156;2022-08-02T04:42:08;7.17;;;6.40;;
3901;SDS011;1966;49.908;9.156;2022-08-02T04:47:28;6.80;;;6.20;;
3901;SDS011;1966;49.908;9.156;2022-08-02T04:52:48;7.30;;;6.60;;
3901;SDS011;1966;49.908;9.156;2022-08-02T04:58:09;9.07;;;6.40;;
3901;SDS011;1966;49.908;9.156;2022-08-02T05:03:28;6.70;;;6.10;;
3901;SDS011;1966;49.908;9.156;2022-08-02T05:08:48;6.50;;;5.90;;
3901;SDS011;1966;49.908;9.156;2022-08-02T05:14:09;7.13;;;6.43;;
3901;SDS011;1966;49.908;9.156;2022-08-02T05:19:29;6.90;;;6.30;;
3901;SDS011;1966;49.908;9.156;2022-08-02T05:24:49;7.07;;;6.40;;
3901;SDS011;1966;49.908;9.156;2022-08-02T05:30:10;8.50;;;6.70;;
3901;SDS011;1966;49.908;9.156;2022-08-02T05:35:30;9.67;;;8.70;;
3901;SDS011;1966;49.908;9.156;2022-08-02T05:40:50;16.80;;;12.40;;
3901;SDS011;1966;49.908;9.156;2022-08-02T05:46:11;16.60;;;13.77;;
3901;SDS011;1966;49.908;9.156;2022-08-02T05:51:32;22.07;;;15.37;;
3901;SDS011;1966;49.908;9.156;2022-08-02T05:56:55;16.23;;;13.77;;
3901;SDS011;1966;49.908;9.156;2022-08-02T06:02:19;15.37;;;12.80;;
3901;SDS011;1966;49.908;9.156;2022-08-02T06:07:42;16.90;;;11.63;;
3901;SDS011;1966;49.908;9.156;2022-08-02T06:13:04;13.73;;;10.60;;
3901;SDS011;1966;49.908;9.156;2022-08-02T06:18:27;12.00;;;10.13;;
3901;SDS011;1966;49.908;9.156;2022-08-02T06:23:47;11.90;;;9.60;;
3901;SDS011;1966;49.908;9.156;2022-08-02T06:29:06;11.90;;;10.70;;
3901;SDS011;1966;49.908;9.156;2022-08-02T06:34:27;11.17;;;9.13;;
3901;SDS011;1966;49.908;9.156;2022-08-02T06:39:47;10.53;;;8.90;;
3901;SDS011;1966;49.908;9.156;2022-08-02T06:45:08;9.10;;;8.20;;
3901;SDS011;1966;49.908;9.156;2022-08-02T06:50:29;10.40;;;9.03;;
3901;SDS011;1966;49.908;9.156;2022-08-02T06:55:48;9.90;;;8.17;;
3901;SDS011;1966;49.908;9.156;2022-08-02T07:01:08;11.50;;;8.37;;
3901;SDS011;1966;49.908;9.156;2022-08-02T07:06:29;8.37;;;7.57;;
3901;SDS011;1966;49.908;9.156;2022-08-02T07:11:49;8.93;;;6.43;;
3901;SDS011;1966;49.908;9.156;2022-08-02T07:17:08;10.13;;;7.27;;
3901;SDS011;1966;49.908;9.156;2022-08-02T07:22:29;8.23;;;7.33;;
3901;SDS011;1966;49.908;9.156;2022-08-02T07:27:49;7.33;;;6.50;;
3901;SDS011;1966;49.908;9.156;2022-08-02T07:33:09;6.20;;;5.60;;
3901;SDS011;1966;49.908;9.156;2022-08-02T07:38:30;7.03;;;6.40;;
3901;SDS011;1966;49.908;9.156;2022-08-02T07:43:49;7.47;;;6.00;;
3901;SDS011;1966;49.908;9.156;2022-08-02T07:49:10;7.93;;;7.03;;
3901;SDS011;1966;49.908;9.156;2022-08-02T07:54:32;7.03;;;5.77;;
3901;SDS011;1966;49.908;9.156;2022-08-02T07:59:52;7.47;;;5.07;;
3901;SDS011;1966;49.908;9.156;2022-08-02T08:05:11;7.40;;;6.57;;
3901;SDS011;1966;49.908;9.156;2022-08-02T08:10:33;5.43;;;4.97;;
3901;SDS011;1966;49.908;9.156;2022-08-02T08:15:52;5.20;;;4.70;;
3901;SDS011;1966;49.908;9.156;2022-08-02T08:21:12;5.63;;;5.10;;
3901;SDS011;1966;49.908;9.156;2022-08-02T08:26:33;7.00;;;4.13;;
3901;SDS011;1966;49.908;9.156;2022-08-02T08:31:52;4.90;;;4.50;;
3901;SDS011;1966;49.908;9.156;2022-08-02T08:37:12;5.20;;;4.73;;
3901;SDS011;1966;49.908;9.156;2022-08-02T08:42:36;4.83;;;4.43;;
3901;SDS011;1966;49.908;9.156;2022-08-02T08:47:59;6.70;;;4.37;;
3901;SDS011;1966;49.908;9.156;2022-08-02T08:53:19;4.97;;;4.00;;
3901;SDS011;1966;49.908;9.156;2022-08-02T08:58:41;4.07;;;3.70;;
3901;SDS011;1966;49.908;9.156;2022-08-02T09:04:01;4.90;;;3.50;;
3901;SDS011;1966;49.908;9.156;2022-08-02T09:09:20;3.53;;;3.27;;
3901;SDS011;1966;49.908;9.156;2022-08-02T09:14:41;3.20;;;3.00;;
3901;SDS011;1966;49.908;9.156;2022-08-02T09:20:05;4.27;;;3.60;;
3901;SDS011;1966;49.908;9.156;2022-08-02T09:25:25;4.40;;;3.13;;
3901;SDS011;1966;49.908;9.156;2022-08-02T09:30:46;3.50;;;2.50;;
3901;SDS011;1966;49.908;9.156;2022-08-02T09:36:07;3.00;;;2.80;;
3901;SDS011;1966;49.908;9.156;2022-08-02T09:41:28;3.80;;;2.70;;
3901;SDS011;1966;49.908;9.156;2022-08-02T09:46:49;2.30;;;2.20;;
3901;SDS011;1966;49.908;9.156;2022-08-02T09:52:09;3.43;;;2.87;;
3901;SDS011;1966;49.908;9.156;2022-08-02T09:57:30;2.27;;;2.17;;
3901;SDS011;1966;49.908;9.156;2022-08-02T10:03:09;4.10;;;2.43;;
3901;SDS011;1966;49.908;9.156;2022-08-02T10:08:28;2.60;;;2.20;;
3901;SDS011;1966;49.908;9.156;2022-08-02T10:13:49;2.13;;;2.03;;
3901;SDS011;1966;49.908;9.156;2022-08-02T10:19:10;2.60;;;2.40;;
3901;SDS011;1966;49.908;9.156;2022-08-02T10:24:30;2.37;;;2.10;;
3901;SDS011;1966;49.908;9.156;2022-08-02T10:29:50;2.40;;;2.30;;
3901;SDS011;1966;49.908;9.156;2022-08-02T10:35:14;2.30;;;2.10;;
3901;SDS011;1966;49.908;9.156;2022-08-02T10:40:41;2.63;;;2.30;;
3901;SDS011;1966;49.908;9.156;2022-08-02T10:51:56;2.33;;;2.23;;
3901;SDS011;1966;49.908;9.156;2022-08-02T10:57:17;1.90;;;1.80;;
3901;SDS011;1966;49.908;9.156;2022-08-02T11:02:38;2.17;;;2.08;;
3901;SDS011;1966;49.908;9.156;2022-08-02T11:08:03;1.92;;;1.83;;
3901;SDS011;1966;49.908;9.156;2022-08-02T11:13:57;1.88;;;1.70;;
3901;SDS011;1966;49.908;9.156;2022-08-02T11:19:17;2.75;;;2.13;;
3901;SDS011;1966;49.908;9.156;2022-08-02T11:24:38;2.17;;;2.08;;
3901;SDS011;1966;49.908;9.156;2022-08-02T11:29:58;1.73;;;1.63;;
3901;SDS011;1966;49.908;9.156;2022-08-02T11:35:18;1.50;;;1.50;;
3901;SDS011;1966;49.908;9.156;2022-08-02T11:40:39;1.60;;;1.50;;
3901;SDS011;1966;49.908;9.156;2022-08-02T11:46:01;1.90;;;1.80;;
3901;SDS011;1966;49.908;9.156;2022-08-02T11:51:20;1.70;;;1.60;;
3901;SDS011;1966;49.908;9.156;2022-08-02T11:56:41;2.08;;;1.85;;
3901;SDS011;1966;49.908;9.156;2022-08-02T12:02:02;1.85;;;1.75;;
3901;SDS011;1966;49.908;9.156;2022-08-02T12:07:26;2.65;;;1.60;;
3901;SDS011;1966;49.908;9.156;2022-08-02T12:12:48;1.63;;;1.52;;
3901;SDS011;1966;49.908;9.156;2022-08-02T12:18:09;1.73;;;1.63;;
3901;SDS011;1966;49.908;9.156;2022-08-02T12:23:46;1.60;;;1.50;;
3901;SDS011;1966;49.908;9.156;2022-08-02T12:29:07;1.60;;;1.50;;
3901;SDS011;1966;49.908;9.156;2022-08-02T12:34:27;1.40;;;1.40;;
3901;SDS011;1966;49.908;9.156;2022-08-02T12:39:47;1.42;;;1.33;;
3901;SDS011;1966;49.908;9.156;2022-08-02T12:45:09;1.15;;;1.15;;
3901;SDS011;1966;49.908;9.156;2022-08-02T12:50:30;1.33;;;1.33;;
3901;SDS011;1966;49.908;9.156;2022-08-02T12:55:52;1.50;;;1.50;;
3901;SDS011;1966;49.908;9.156;2022-08-02T13:01:18;1.40;;;1.30;;
3901;SDS011;1966;49.908;9.156;2022-08-02T13:06:38;1.40;;;1.30;;
3901;SDS011;1966;49.908;9.156;2022-08-02T13:11:58;1.60;;;1.50;;
3901;SDS011;1966;49.908;9.156;2022-08-02T13:17:19;1.50;;;1.40;;
3901;SDS011;1966;49.908;9.156;2022-08-02T13:22:39;1.58;;;1.48;;
3901;SDS011;1966;49.908;9.156;2022-08-02T13:27:59;1.33;;;1.33;;
3901;SDS011;1966;49.908;9.156;2022-08-02T13:33:20;1.60;;;1.50;;
3901;SDS011;1966;49.908;9.156;2022-08-02T13:38:39;1.77;;;1.60;;
3901;SDS011;1966;49.908;9.156;2022-08-02T13:43:59;5.47;;;1.73;;
3901;SDS011;1966;49.908;9.156;2022-08-02T13:49:20;1.63;;;1.52;;
3901;SDS011;1966;49.908;9.156;2022-08-02T13:54:40;1.70;;;1.60;;
3901;SDS011;1966;49.908;9.156;2022-08-02T13:59:59;1.40;;;1.30;;
3901;SDS011;1966;49.908;9.156;2022-08-02T14:05:20;1.23;;;1.20;;
3901;SDS011;1966;49.908;9.156;2022-08-02T14:10:40;1.50;;;1.33;;
3901;SDS011;1966;49.908;9.156;2022-08-02T14:15:59;1.42;;;1.20;;
3901;SDS011;1966;49.908;9.156;2022-08-02T14:21:20;2.00;;;1.20;;
3901;SDS011;1966;49.908;9.156;2022-08-02T14:26:40;1.30;;;1.30;;
3901;SDS011;1966;49.908;9.156;2022-08-02T14:32:00;1.88;;;1.40;;
3901;SDS011;1966;49.908;9.156;2022-08-02T14:37:21;1.30;;;1.30;;
3901;SDS011;1966;49.908;9.156;2022-08-02T14:42:41;5.25;;;1.30;;
3901;SDS011;1966;49.908;9.156;2022-08-02T14:48:00;1.20;;;1.20;;
3901;SDS011;1966;49.908;9.156;2022-08-02T14:53:21;1.40;;;1.30;;
3901;SDS011;1966;49.908;9.156;2022-08-02T14:58:41;1.30;;;1.30;;
3901;SDS011;1966;49.908;9.156;2022-08-02T15:04:00;1.23;;;1.23;;
3901;SDS011;1966;49.908;9.156;2022-08-02T15:09:21;1.55;;;1.52;;
3901;SDS011;1966;49.908;9.156;2022-08-02T15:14:41;1.50;;;1.40;;
3901;SDS011;1966;49.908;9.156;2022-08-02T15:20:01;1.30;;;1.30;;
3901;SDS011;1966;49.908;9.156;2022-08-02T15:25:22;1.38;;;1.33;;
3901;SDS011;1966;49.908;9.156;2022-08-02T15:30:41;1.40;;;1.30;;
3901;SDS011;1966;49.908;9.156;2022-08-02T15:36:01;2.45;;;1.67;;
3901;SDS011;1966;49.908;9.156;2022-08-02T15:41:22;2.20;;;1.80;;
3901;SDS011;1966;49.908;9.156;2022-08-02T15:46:41;1.60;;;1.60;;
3901;SDS011;1966;49.908;9.156;2022-08-02T15:52:01;1.70;;;1.60;;
3901;SDS011;1966;49.908;9.156;2022-08-02T15:57:22;1.70;;;1.60;;
3901;SDS011;1966;49.908;9.156;2022-08-02T16:02:42;1.60;;;1.50;;
3901;SDS011;1966;49.908;9.156;2022-08-02T16:08:02;2.10;;;2.00;;
3901;SDS011;1966;49.908;9.156;2022-08-02T16:13:23;1.90;;;1.80;;
3901;SDS011;1966;49.908;9.156;2022-08-02T16:19:01;2.15;;;1.90;;
3901;SDS011;1966;49.908;9.156;2022-08-02T16:24:20;2.17;;;2.08;;
3901;SDS011;1966;49.908;9.156;2022-08-02T16:29:41;2.20;;;2.00;;
3901;SDS011;1966;49.908;9.156;2022-08-02T16:35:01;2.17;;;1.97;;
3901;SDS011;1966;49.908;9.156;2022-08-02T16:40:21;5.32;;;2.20;;
3901;SDS011;1966;49.908;9.156;2022-08-02T16:45:42;1.90;;;1.80;;
3901;SDS011;1966;49.908;9.156;2022-08-02T16:51:01;1.90;;;1.75;;
3901;SDS011;1966;49.908;9.156;2022-08-02T16:56:21;3.45;;;2.10;;
3901;SDS011;1966;49.908;9.156;2022-08-02T17:01:42;2.00;;;1.90;;
3901;SDS011;1966;49.908;9.156;2022-08-02T17:07:02;2.85;;;1.73;;
3901;SDS011;1966;49.908;9.156;2022-08-02T17:12:21;2.83;;;2.03;;
3901;SDS011;1966;49.908;9.156;2022-08-02T17:17:42;2.25;;;1.70;;
3901;SDS011;1966;49.908;9.156;2022-08-02T17:23:02;1.63;;;1.52;;
3901;SDS011;1966;49.908;9.156;2022-08-02T17:28:21;1.80;;;1.70;;
3901;SDS011;1966;49.908;9.156;2022-08-02T17:33:42;1.50;;;1.40;;
3901;SDS011;1966;49.908;9.156;2022-08-02T17:39:02;2.15;;;1.92;;
3901;SDS011;1966;49.908;9.156;2022-08-02T17:44:22;3.28;;;1.67;;
3901;SDS011;1966;49.908;9.156;2022-08-02T17:49:43;4.82;;;1.65;;
3901;SDS011;1966;49.908;9.156;2022-08-02T17:55:02;1.70;;;1.60;;
3901;SDS011;1966;49.908;9.156;2022-08-02T18:00:22;1.70;;;1.60;;
3901;SDS011;1966;49.908;9.156;2022-08-02T18:05:45;1.65;;;1.60;;
3901;SDS011;1966;49.908;9.156;2022-08-02T18:11:04;1.75;;;1.65;;
3901;SDS011;1966;49.908;9.156;2022-08-02T18:16:24;1.95;;;1.85;;
3901;SDS011;1966;49.908;9.156;2022-08-02T18:21:45;2.00;;;1.90;;
3901;SDS011;1966;49.908;9.156;2022-08-02T18:27:05;3.03;;;2.20;;
3901;SDS011;1966;49.908;9.156;2022-08-02T18:32:25;4.20;;;2.40;;
3901;SDS011;1966;49.908;9.156;2022-08-02T18:37:46;4.43;;;2.03;;
3901;SDS011;1966;49.908;9.156;2022-08-02T18:43:06;3.00;;;2.40;;
3901;SDS011;1966;49.908;9.156;2022-08-02T18:48:26;2.67;;;2.47;;
3901;SDS011;1966;49.908;9.156;2022-08-02T18:53:47;2.70;;;2.50;;
3901;SDS011;1966;49.908;9.156;2022-08-02T18:59:10;2.93;;;2.73;;
3901;SDS011;1966;49.908;9.156;2022-08-02T19:04:30;2.67;;;2.40;;
3901;SDS011;1966;49.908;9.156;2022-08-02T19:09:51;2.87;;;2.57;;
3901;SDS011;1966;49.908;9.156;2022-08-02T19:15:10;4.20;;;2.60;;
3901;SDS011;1966;49.908;9.156;2022-08-02T19:20:32;3.70;;;2.77;;
3901;SDS011;1966;49.908;9.156;2022-08-02T19:25:53;2.40;;;2.23;;
3901;SDS011;1966;49.908;9.156;2022-08-02T19:31:13;3.17;;;2.90;;
3901;SDS011;1966;49.908;9.156;2022-08-02T19:36:33;4.00;;;3.10;;
3901;SDS011;1966;49.908;9.156;2022-08-02T19:41:54;2.97;;;2.77;;
3901;SDS011;1966;49.908;9.156;2022-08-02T19:47:14;3.07;;;2.87;;
3901;SDS011;1966;49.908;9.156;2022-08-02T19:52:34;5.13;;;3.03;;
3901;SDS011;1966;49.908;9.156;2022-08-02T19:57:55;4.43;;;2.83;;
3901;SDS011;1966;49.908;9.156;2022-08-02T20:03:14;3.73;;;2.70;;
3901;SDS011;1966;49.908;9.156;2022-08-02T20:08:34;3.13;;;2.93;;
3901;SDS011;1966;49.908;9.156;2022-08-02T20:13:55;11.03;;;2.87;;
3901;SDS011;1966;49.908;9.156;2022-08-02T20:19:14;4.40;;;3.37;;
3901;SDS011;1966;49.908;9.156;2022-08-02T20:24:34;3.20;;;3.00;;
3901;SDS011;1966;49.908;9.156;2022-08-02T20:29:55;5.00;;;3.27;;
3901;SDS011;1966;49.908;9.156;2022-08-02T20:35:15;3.70;;;3.43;;
3901;SDS011;1966;49.908;9.156;2022-08-02T20:40:34;3.43;;;3.13;;
3901;SDS011;1966;49.908;9.156;2022-08-02T20:45:55;3.77;;;3.10;;
3901;SDS011;1966;49.908;9.156;2022-08-02T20:51:15;3.30;;;3.00;;
3901;SDS011;1966;49.908;9.156;2022-08-02T20:56:35;3.53;;;3.23;;
3901;SDS011;1966;49.908;9.156;2022-08-02T21:01:56;3.40;;;3.10;;
3901;SDS011;1966;49.908;9.156;2022-08-02T21:07:19;5.33;;;3.33;;
3901;SDS011;1966;49.908;9.156;2022-08-02T21:12:39;3.43;;;3.17;;
3901;SDS011;1966;49.908;9.156;2022-08-02T21:18:00;3.83;;;3.20;;
3901;SDS011;1966;49.908;9.156;2022-08-02T21:23:19;3.80;;;3.20;;
3901;SDS011;1966;49.908;9.156;2022-08-02T21:28:39;3.77;;;3.47;;
3901;SDS011;1966;49.908;9.156;2022-08-02T21:34:00;3.60;;;3.30;;
3901;SDS011;1966;49.908;9.156;2022-08-02T21:39:20;3.50;;;3.20;;
3901;SDS011;1966;49.908;9.156;2022-08-02T21:44:40;3.43;;;3.23;;
3901;SDS011;1966;49.908;9.156;2022-08-02T21:50:01;3.00;;;2.80;;
3901;SDS011;1966;49.908;9.156;2022-08-02T21:55:20;5.20;;;2.70;;
3901;SDS011;1966;49.908;9.156;2022-08-02T22:00:40;3.70;;;3.37;;
3901;SDS011;1966;49.908;9.156;2022-08-02T22:06:01;4.07;;;3.23;;
3901;SDS011;1966;49.908;9.156;2022-08-02T22:11:21;3.43;;;3.20;;
3901;SDS011;1966;49.908;9.156;2022-08-02T22:16:40;3.67;;;3.37;;
3901;SDS011;1966;49.908;9.156;2022-08-02T22:22:01;4.30;;;3.47;;
3901;SDS011;1966;49.908;9.156;2022-08-02T22:27:21;3.53;;;3.23;;
3901;SDS011;1966;49.908;9.156;2022-08-02T22:32:41;6.90;;;3.50;;
3901;SDS011;1966;49.908;9.156;2022-08-02T22:38:20;5.57;;;3.43;;
3901;SDS011;1966;49.908;9.156;2022-08-02T22:43:40;3.80;;;3.50;;
3901;SDS011;1966;49.908;9.156;2022-08-02T22:49:00;3.40;;;3.13;;
3901;SDS011;1966;49.908;9.156;2022-08-02T22:54:21;3.63;;;3.33;;
3901;SDS011;1966;49.908;9.156;2022-08-02T22:59:41;6.10;;;3.90;;
3901;SDS011;1966;49.908;9.156;2022-08-02T23:05:00;4.47;;;3.27;;
3901;SDS011;1966;49.908;9.156;2022-08-02T23:10:22;3.63;;;3.33;;
3901;SDS011;1966;49.908;9.156;2022-08-02T23:15:42;3.73;;;3.53;;
3901;SDS011;1966;49.908;9.156;2022-08-02T23:21:19;3.97;;;3.67;;
3901;SDS011;1966;49.908;9.156;2022-08-02T23:26:40;4.40;;;3.80;;
3901;SDS011;1966;49.908;9.156;2022-08-02T23:32:00;4.33;;;3.43;;
3901;SDS011;1966;49.908;9.156;2022-08-02T23:37:20;4.47;;;3.53;;
3901;SDS011;1966;49.908;9.156;2022-08-02T23:42:41;4.20;;;3.80;;
3901;SDS011;1966;49.908;9.156;2022-08-02T23:48:00;4.40;;;4.00;;
3901;SDS011;1966;49.908;9.156;2022-08-02T23:53:20;4.23;;;3.93;;
3901;SDS011;1966;49.908;9.156;2022-08-02T23:58:41;4.50;;;3.27;;
